Time;durP1;ratioP1;P1;durP2;ratioP2;P2;SDS_P1;SDS_P2;PMS_P1;PMS_P2;Temp;Humidity;BMP_temperature;BMP_pressure;BME280_temperature;BME280_humidity;BME280_pressure;Samples;Min_cycle;Max_cycle;Signal;HPM_P1;HPM_P2
2022/05/26 00:00:27;;;;;;;15.50;4.60;;;15.00;99.90;;;;;;5053522;28;20075;-74
2022/05/26 00:02:53;;;;;;;17.15;4.78;;;14.40;99.90;;;;;;5053479;28;20495;-75
2022/05/26 00:05:18;;;;;;;13.68;4.68;;;14.30;99.90;;;;;;5053138;28;20128;-74
2022/05/26 00:07:44;;;;;;;15.63;4.82;;;14.30;99.90;;;;;;5053295;28;20017;-73
2022/05/26 00:10:10;;;;;;;15.88;4.40;;;14.30;99.90;;;;;;5053731;28;20451;-74
2022/05/26 00:12:35;;;;;;;15.95;5.18;;;14.30;99.90;;;;;;5057297;28;20025;-73
2022/05/26 00:15:01;;;;;;;14.77;4.85;;;14.30;99.90;;;;;;5059916;28;20078;-74
2022/05/26 00:17:28;;;;;;;19.50;4.05;;;14.20;99.90;;;;;;5058571;28;20116;-73
2022/05/26 00:19:54;;;;;;;14.93;4.72;;;14.30;99.90;;;;;;5059995;28;20104;-73
2022/05/26 00:22:20;;;;;;;18.27;5.60;;;14.20;99.90;;;;;;5060564;28;20111;-73
2022/05/26 00:24:46;;;;;;;17.23;4.85;;;14.20;99.90;;;;;;5058608;28;20027;-73
2022/05/26 00:27:12;;;;;;;15.63;4.55;;;14.20;99.90;;;;;;5058543;28;20025;-73
2022/05/26 00:29:38;;;;;;;12.38;4.70;;;14.20;99.90;;;;;;5060437;28;20356;-74
2022/05/26 00:32:04;;;;;;;12.70;4.10;;;14.20;99.90;;;;;;5059726;28;20029;-73
2022/05/26 00:34:30;;;;;;;16.27;4.30;;;14.20;99.90;;;;;;5060504;28;20414;-74
2022/05/26 00:36:56;;;;;;;12.95;3.83;;;14.20;99.90;;;;;;5058782;28;20017;-73
2022/05/26 00:39:23;;;;;;;19.40;5.50;;;14.20;99.90;;;;;;5058359;28;20044;-74
2022/05/26 00:41:59;;;;;;;21.73;5.00;;;14.30;99.90;;;;;;5059677;28;20017;-73
2022/05/26 00:44:25;;;;;;;23.30;4.32;;;14.30;99.90;;;;;;5058248;28;20021;-73
2022/05/26 00:47:15;;;;;;;16.98;4.47;;;14.40;99.90;;;;;;5059911;28;20017;-74
2022/05/26 00:49:45;;;;;;;10.60;3.90;;;14.20;99.90;;;;;;5059726;28;20395;-73
2022/05/26 00:52:15;;;;;;;16.50;4.78;;;14.20;99.90;;;;;;5058335;28;20017;-74
2022/05/26 00:54:43;;;;;;;16.85;4.18;;;14.20;99.90;;;;;;5058263;28;20450;-73
2022/05/26 00:57:23;;;;;;;20.92;6.03;;;14.10;99.90;;;;;;5059854;28;20021;-73
2022/05/26 01:00:03;;;;;;;15.70;4.28;;;14.10;99.90;;;;;;5058254;28;20098;-74
2022/05/26 01:02:35;;;;;;;19.83;4.40;;;14.10;99.90;;;;;;5058343;28;20017;-74
2022/05/26 01:05:14;;;;;;;13.95;3.80;;;14.10;99.90;;;;;;5059428;28;20031;-74
2022/05/26 01:07:39;;;;;;;;;;;14.10;99.90;;;;;;5060033;28;20383;-73
2022/05/26 01:10:08;;;;;;;13.73;3.67;;;14.20;99.90;;;;;;5058344;28;19912;-74
2022/05/26 01:12:34;;;;;;;27.65;5.30;;;14.20;99.90;;;;;;5058164;28;20017;-74
2022/05/26 01:15:05;;;;;;;13.93;4.50;;;14.10;99.90;;;;;;5058137;28;20063;-74
2022/05/26 01:17:36;;;;;;;14.30;4.70;;;14.10;99.90;;;;;;5059377;28;20107;-74
2022/05/26 01:20:30;;;;;;;19.52;4.43;;;14.10;99.90;;;;;;5059633;28;20021;-74
2022/05/26 01:23:11;;;;;;;32.70;5.20;;;14.10;99.90;;;;;;5056094;28;20032;-74
2022/05/26 01:25:55;;;;;;;20.52;5.43;;;14.00;99.90;;;;;;5055857;28;20033;-74
2022/05/26 01:28:42;;;;;;;17.63;4.75;;;14.10;99.90;;;;;;5054926;28;20060;-74
2022/05/26 01:31:20;;;;;;;18.75;3.85;;;14.00;99.90;;;;;;5056190;28;20139;-74
2022/05/26 01:34:07;;;;;;;19.25;4.15;;;14.00;99.90;;;;;;5054280;28;20388;-74
2022/05/26 01:36:40;;;;;;;18.55;3.63;;;14.00;99.90;;;;;;5056475;28;20514;-74
2022/05/26 01:39:12;;;;;;;24.58;4.20;;;14.00;99.90;;;;;;5056339;28;20025;-74
2022/05/26 01:41:52;;;;;;;25.75;4.40;;;14.00;99.90;;;;;;5054667;28;20060;-74
2022/05/26 01:44:47;;;;;;;31.98;5.63;;;14.10;99.90;;;;;;5055771;28;20068;-74
2022/05/26 01:47:40;;;;;;;18.42;5.30;;;14.10;99.90;;;;;;5047288;28;20518;-74
2022/05/26 01:50:36;;;;;;;18.83;5.20;;;14.10;99.90;;;;;;5055022;28;20060;-75
2022/05/26 01:53:30;;;;;;;21.48;5.05;;;14.00;99.90;;;;;;5056281;28;20095;-74
2022/05/26 01:56:31;;;;;;;18.85;4.63;;;14.00;99.90;;;;;;5041405;28;20040;-75
2022/05/26 01:59:11;;;;;;;20.98;3.75;;;14.00;99.90;;;;;;5055886;28;20027;-77
2022/05/26 02:01:41;;;;;;;17.25;4.57;;;14.00;99.90;;;;;;5057051;28;20025;-74
2022/05/26 02:04:13;;;;;;;18.20;4.95;;;14.00;99.90;;;;;;5055915;28;20100;-76
2022/05/26 02:06:46;;;;;;;12.75;3.47;;;13.90;99.90;;;;;;5055703;28;20082;-74
2022/05/26 02:09:17;;;;;;;18.92;4.20;;;13.90;99.90;;;;;;5054876;28;20048;-74
2022/05/26 02:12:12;;;;;;;24.20;5.60;;;14.00;99.90;;;;;;5054648;28;20017;-74
2022/05/26 02:14:53;;;;;;;28.80;4.43;;;13.90;99.90;;;;;;5054191;28;20025;-76
2022/05/26 02:17:23;;;;;;;21.33;4.28;;;13.90;99.90;;;;;;5055300;28;20510;-77
2022/05/26 02:20:26;;;;;;;17.67;4.15;;;13.90;99.90;;;;;;5053998;28;20487;-76
2022/05/26 02:22:59;;;;;;;19.40;3.30;;;14.00;99.90;;;;;;5052584;28;20033;-76
2022/05/26 02:25:27;;;;;;;15.57;2.83;;;14.00;99.90;;;;;;5053534;28;20029;-76
2022/05/26 02:27:55;;;;;;;11.95;2.70;;;13.90;99.90;;;;;;5053578;28;20021;-76
2022/05/26 02:30:26;;;;;;;16.35;2.88;;;14.00;99.90;;;;;;5055142;28;20029;-76
2022/05/26 02:32:54;;;;;;;14.93;3.33;;;13.90;99.90;;;;;;5054716;28;20119;-76
2022/05/26 02:35:32;;;;;;;14.53;2.77;;;13.90;99.90;;;;;;5054392;28;20396;-76
2022/05/26 02:38:01;;;;;;;20.65;3.08;;;13.80;99.90;;;;;;5055000;28;20335;-76
2022/05/26 02:40:27;;;;;;;17.65;3.40;;;13.80;99.90;;;;;;5054693;28;20431;-76
2022/05/26 02:42:56;;;;;;;23.35;4.50;;;13.90;99.90;;;;;;5053684;28;20059;-76
2022/05/26 02:45:40;;;;;;;14.68;2.45;;;14.00;99.90;;;;;;5054529;28;20071;-75
2022/05/26 02:48:31;;;;;;;24.98;2.75;;;13.90;99.90;;;;;;5053221;28;20128;-76
2022/05/26 02:51:28;;;;;;;18.77;2.50;;;13.90;99.90;;;;;;5053167;28;20063;-76
2022/05/26 02:54:12;;;;;;;15.38;2.45;;;13.90;99.90;;;;;;5054325;28;20092;-76
2022/05/26 02:57:01;;;;;;;16.77;2.50;;;13.90;99.90;;;;;;5054613;28;20492;-76
2022/05/26 02:59:48;;;;;;;11.52;2.25;;;17.30;99.90;;;;;;5054337;28;20403;-76
2022/05/26 03:02:42;;;;;;;14.43;2.40;;;13.80;99.90;;;;;;5054203;28;20064;-76
2022/05/26 03:05:19;;;;;;;16.20;2.28;;;13.90;99.90;;;;;;5052755;28;20078;-76
2022/05/26 03:07:49;;;;;;;24.53;3.33;;;13.90;99.90;;;;;;5053001;28;20021;-75
2022/05/26 03:10:17;;;;;;;15.80;2.03;;;13.90;99.90;;;;;;5052878;28;20021;-76
2022/05/26 03:12:43;;;;;;;16.05;1.55;;;13.80;99.90;;;;;;5054233;28;20036;-76
2022/05/26 03:15:09;;;;;;;16.65;2.38;;;13.80;99.90;;;;;;5052644;28;20042;-75
2022/05/26 03:17:36;;;;;;;10.80;1.30;;;13.80;99.90;;;;;;5053792;28;20395;-75
2022/05/26 03:20:02;;;;;;;15.77;1.92;;;13.90;99.90;;;;;;5053767;28;20091;-75
2022/05/26 03:22:28;;;;;;;11.50;1.95;;;13.80;99.90;;;;;;5053833;28;20032;-75
2022/05/26 03:24:54;;;;;;;12.48;1.60;;;13.80;99.90;;;;;;5052390;28;20017;-75
2022/05/26 03:27:19;;;;;;;15.77;2.08;;;13.90;99.90;;;;;;5053767;28;20017;-75
2022/05/26 03:29:45;;;;;;;14.52;2.00;;;13.90;99.90;;;;;;5053721;28;20021;-75
2022/05/26 03:32:11;;;;;;;10.38;1.30;;;13.90;99.90;;;;;;5053568;28;20036;-76
2022/05/26 03:42:51;;;;;;;11.90;1.40;;;13.80;99.90;;;;;;5053962;28;20040;-76
2022/05/26 03:45:20;;;;;;;19.08;1.75;;;13.80;99.90;;;;;;5052137;28;20028;-75
2022/05/26 03:47:45;;;;;;;13.18;2.25;;;13.70;99.90;;;;;;5053114;28;20021;-76
2022/05/26 03:50:11;;;;;;;6.10;0.82;;;13.80;99.90;;;;;;5053632;28;20021;-76
2022/05/26 03:52:37;;;;;;;10.02;1.27;;;13.80;99.90;;;;;;5054133;28;20025;-75
2022/05/26 03:55:03;;;;;;;12.32;0.93;;;13.60;99.90;;;;;;5053234;28;20021;-76
2022/05/26 03:57:31;;;;;;;6.25;0.60;;;13.70;99.90;;;;;;5053403;28;20086;-75
2022/05/26 03:59:57;;;;;;;11.20;1.40;;;13.70;99.90;;;;;;5052512;28;20025;-76
2022/05/26 04:02:23;;;;;;;15.68;1.25;;;13.70;99.90;;;;;;5053598;28;20416;-75
2022/05/26 04:04:49;;;;;;;11.75;0.95;;;13.80;99.90;;;;;;5053575;28;20132;-75
2022/05/26 04:07:14;;;;;;;7.13;0.65;;;13.80;99.90;;;;;;5053348;28;20028;-76
2022/05/26 04:09:40;;;;;;;13.90;1.05;;;13.80;99.90;;;;;;5053242;28;20064;-76
2022/05/26 04:12:07;;;;;;;9.77;1.88;;;13.90;99.90;;;;;;5051974;28;20021;-76
2022/05/26 04:14:33;;;;;;;6.45;0.75;;;13.80;99.90;;;;;;5053066;28;20075;-76
2022/05/26 04:16:59;;;;;;;14.50;1.55;;;13.80;99.90;;;;;;5053278;28;20021;-76
2022/05/26 04:19:26;;;;;;;17.77;0.90;;;13.80;99.90;;;;;;5053429;28;20017;-76
2022/05/26 04:24:37;;;;;;;7.07;0.55;;;13.80;99.90;;;;;;5053346;28;20083;-76
2022/05/26 04:27:04;;;;;;;4.15;0.43;;;13.80;99.90;;;;;;5052006;28;20100;-76
2022/05/26 04:29:30;;;;;;;2.33;0.30;;;13.80;99.90;;;;;;5052029;28;20024;-76
2022/05/26 04:31:55;;;;;;;5.10;0.55;;;13.80;99.90;;;;;;5051745;28;20108;-76
2022/05/26 04:34:21;;;;;;;5.68;0.47;;;13.80;99.90;;;;;;5053121;28;20025;-76
2022/05/26 04:36:47;;;;;;;4.22;0.60;;;13.80;99.90;;;;;;5053439;28;20113;-76
2022/05/26 04:39:14;;;;;;;6.93;0.52;;;13.90;99.90;;;;;;5052982;28;20033;-76
2022/05/26 04:41:42;;;;;;;5.93;0.20;;;14.00;99.90;;;;;;5053111;28;20028;-76
2022/05/26 04:44:09;;;;;;;12.70;1.47;;;14.00;99.90;;;;;;5053490;28;20029;-76
2022/05/26 04:46:36;;;;;;;5.72;0.20;;;14.00;99.90;;;;;;5052876;28;20093;-76
2022/05/26 04:49:06;;;;;;;6.80;0.93;;;14.00;99.90;;;;;;5051723;28;20028;-76
2022/05/26 04:51:34;;;;;;;5.78;0.88;;;14.00;99.90;;;;;;5052825;28;20028;-76
2022/05/26 04:54:00;;;;;;;6.15;0.75;;;14.10;99.90;;;;;;5053080;28;20029;-75
2022/05/26 04:56:25;;;;;;;5.03;0.17;;;14.30;99.90;;;;;;5053073;28;20561;-76
2022/05/26 04:58:51;;;;;;;11.73;0.73;;;14.10;99.90;;;;;;5055995;28;20025;-76
2022/05/26 05:01:19;;;;;;;9.57;0.40;;;14.10;99.90;;;;;;5056500;28;20395;-76
2022/05/26 05:03:45;;;;;;;6.87;0.10;;;14.20;99.90;;;;;;5055232;28;20021;-76
2022/05/26 05:06:11;;;;;;;5.10;0.08;;;14.20;99.90;;;;;;5055107;28;20100;-76
2022/05/26 05:08:37;;;;;;;4.22;0.32;;;14.20;99.90;;;;;;5056645;28;20064;-76
2022/05/26 05:11:02;;;;;;;7.15;0.50;;;14.20;99.90;;;;;;5056462;28;20096;-76
2022/05/26 05:13:28;;;;;;;3.45;0.60;;;14.20;99.90;;;;;;5056315;28;20029;-75
2022/05/26 05:16:10;;;;;;;5.35;0.40;;;14.20;99.90;;;;;;5055052;28;20032;-75
2022/05/26 05:18:36;;;;;;;2.25;0.25;;;14.20;99.90;;;;;;5056816;28;20024;-76
2022/05/26 05:21:10;;;;;;;6.40;0.82;;;14.30;99.90;;;;;;5056220;28;20029;-76
2022/05/26 05:23:43;;;;;;;2.20;0.30;;;14.40;99.90;;;;;;5056078;28;20027;-75
2022/05/26 05:26:14;;;;;;;3.53;0.60;;;14.50;99.90;;;;;;5056464;28;20381;-76
2022/05/26 05:28:45;;;;;;;2.20;0.10;;;14.50;99.90;;;;;;5056761;28;20051;-76
2022/05/26 05:31:16;;;;;;;5.00;0.38;;;14.60;99.90;;;;;;5056472;28;20053;-76
2022/05/26 05:33:51;;;;;;;10.88;0.98;;;14.70;99.90;;;;;;5056200;28;20107;-76
2022/05/26 05:36:19;;;;;;;6.75;0.47;;;14.90;99.90;;;;;;5056243;28;20029;-76
2022/05/26 05:38:46;;;;;;;4.15;0.17;;;15.00;99.90;;;;;;5056454;28;20033;-76
2022/05/26 05:41:12;;;;;;;7.97;0.55;;;15.20;99.90;;;;;;5056245;28;20021;-76
2022/05/26 05:43:39;;;;;;;11.40;0.57;;;15.40;99.90;;;;;;5055927;28;20031;-76
2022/05/26 05:46:06;;;;;;;10.05;0.93;;;15.30;99.90;;;;;;5055843;28;20024;-75
2022/05/26 05:48:32;;;;;;;7.78;0.15;;;15.20;99.90;;;;;;5056510;28;20024;-76
2022/05/26 05:50:58;;;;;;;5.68;0.30;;;15.20;99.90;;;;;;5056636;28;20021;-76
2022/05/26 05:53:23;;;;;;;4.75;0.10;;;15.10;99.90;;;;;;5057121;28;20021;-76
2022/05/26 05:55:49;;;;;;;5.80;0.88;;;15.10;99.90;;;;;;5057461;28;20035;-76
2022/05/26 05:58:14;;;;;;;4.97;0.70;;;15.20;99.90;;;;;;5056798;28;20017;-76
2022/05/26 06:00:41;;;;;;;8.55;0.68;;;15.30;99.90;;;;;;5056717;28;20028;-76
2022/05/26 06:03:08;;;;;;;10.45;0.70;;;15.40;99.90;;;;;;5057074;28;20033;-76
2022/05/26 06:05:34;;;;;;;12.32;1.48;;;15.50;99.90;;;;;;5057272;28;20021;-76
2022/05/26 06:07:59;;;;;;;2.55;0.20;;;15.50;99.90;;;;;;5057329;28;20078;-76
2022/05/26 06:10:25;;;;;;;1.80;0.22;;;15.60;99.90;;;;;;5056167;28;20013;-76
2022/05/26 06:12:51;;;;;;;9.70;0.15;;;15.60;99.90;;;;;;5057008;28;20024;-76
2022/05/26 06:15:18;;;;;;;7.05;0.40;;;15.80;99.90;;;;;;5055480;28;20040;-75
2022/05/26 06:17:43;;;;;;;7.00;0.57;;;15.80;99.90;;;;;;5056205;28;20013;-75
2022/05/26 06:20:11;;;;;;;2.83;0.25;;;15.90;99.90;;;;;;5055146;28;20075;-75
2022/05/26 06:22:40;;;;;;;4.20;0.08;;;15.90;99.90;;;;;;5054745;28;20547;-75
2022/05/26 06:25:07;;;;;;;4.15;0.50;;;15.90;99.90;;;;;;5056118;28;20021;-75
2022/05/26 06:30:18;;;;;;;2.80;0.10;;;16.20;99.90;;;;;;5056260;28;20094;-75
2022/05/26 06:38:19;;;;;;;5.32;0.10;;;16.50;99.90;;;;;;5016181;28;20092;-76
2022/05/26 06:40:45;;;;;;;2.88;0.00;;;16.70;99.90;;;;;;5016105;28;20481;-76
2022/05/26 06:43:11;;;;;;;4.05;0.52;;;16.70;99.90;;;;;;5015867;28;20109;-76
2022/05/26 06:45:38;;;;;;;10.15;0.75;;;16.90;99.90;;;;;;5016289;28;20444;-76
2022/05/26 06:48:04;;;;;;;7.05;0.30;;;16.90;99.90;;;;;;5015996;28;20402;-76
2022/05/26 06:50:29;;;;;;;4.20;0.20;;;17.00;99.90;;;;;;5015718;28;20469;-76
2022/05/26 06:52:55;;;;;;;2.75;0.00;;;17.00;99.90;;;;;;5016297;28;20025;-76
2022/05/26 06:55:20;;;;;;;2.25;0.00;;;17.10;99.90;;;;;;5015796;28;20153;-76
2022/05/26 06:57:46;;;;;;;5.93;0.22;;;17.20;99.90;;;;;;5015768;28;20053;-76
2022/05/26 07:00:14;;;;;;;5.45;0.35;;;17.20;99.90;;;;;;5014990;28;20370;-76
2022/05/26 07:02:40;;;;;;;3.50;0.38;;;17.20;99.90;;;;;;5014398;28;20029;-76
2022/05/26 07:05:07;;;;;;;3.58;0.15;;;17.40;99.90;;;;;;5015610;28;20510;-78
2022/05/26 07:07:34;;;;;;;2.30;0.43;;;17.40;99.90;;;;;;5015460;28;20109;-76
2022/05/26 07:10:00;;;;;;;2.10;0.20;;;17.40;99.90;;;;;;5015682;28;20025;-76
2022/05/26 07:12:25;;;;;;;4.90;0.50;;;17.50;99.90;;;;;;5016289;28;20120;-76
2022/05/26 07:14:51;;;;;;;4.38;0.13;;;17.40;99.90;;;;;;5016105;28;20481;-75
2022/05/26 07:17:17;;;;;;;4.47;0.35;;;17.40;99.90;;;;;;5014368;28;20022;-76
2022/05/26 07:19:43;;;;;;;2.30;0.20;;;17.60;99.90;;;;;;5015383;28;20022;-76
2022/05/26 07:22:09;;;;;;;2.40;0.28;;;17.80;99.90;;;;;;5013256;28;20113;-76
2022/05/26 07:24:35;;;;;;;2.20;0.00;;;17.80;99.90;;;;;;5013885;28;20515;-76
2022/05/26 07:27:01;;;;;;;4.95;0.25;;;17.60;99.90;;;;;;5015117;28;20032;-76
2022/05/26 07:29:27;;;;;;;2.80;0.00;;;17.80;99.90;;;;;;5013917;28;20397;-76
2022/05/26 07:31:53;;;;;;;5.65;0.00;;;17.60;99.90;;;;;;5014923;28;20030;-76
2022/05/26 07:34:19;;;;;;;2.08;0.20;;;17.50;99.90;;;;;;5014879;28;20113;-76
2022/05/26 07:42:17;;;;;;;10.43;0.80;;;17.40;99.90;;;;;;5015717;28;20049;-76
2022/05/26 07:44:45;;;;;;;6.75;0.32;;;17.40;99.90;;;;;;5015307;28;20022;-77
2022/05/26 07:47:12;;;;;;;1.05;0.00;;;17.30;99.90;;;;;;5013806;28;20022;-75
2022/05/26 07:49:41;;;;;;;1.83;0.00;;;17.40;99.90;;;;;;5015411;28;20017;-76
2022/05/26 07:52:08;;;;;;;2.92;0.38;;;17.60;99.90;;;;;;5015330;28;20493;-74
2022/05/26 07:54:33;;;;;;;1.35;0.20;;;18.00;99.90;;;;;;5016286;28;20014;-74
2022/05/26 07:57:01;;;;;;;3.58;0.22;;;18.00;99.90;;;;;;5014324;28;20030;-74
2022/05/26 07:59:27;;;;;;;4.85;0.20;;;18.10;99.90;;;;;;5015961;28;20021;-75
2022/05/26 08:01:52;;;;;;;3.30;0.10;;;18.10;99.90;;;;;;5016613;28;20029;-74
2022/05/26 08:04:18;;;;;;;2.28;0.35;;;18.00;99.90;;;;;;5015293;28;20083;-74
2022/05/26 08:06:48;;;;;;;7.43;0.43;;;18.00;99.90;;;;;;5016094;28;20061;-74
2022/05/26 08:09:15;;;;;;;4.57;0.47;;;18.10;99.90;;;;;;5015283;28;20185;-75
2022/05/26 08:11:41;;;;;;;5.50;0.70;;;18.20;99.90;;;;;;5014802;28;20159;-74
2022/05/26 08:14:07;;;;;;;6.05;0.45;;;18.20;99.90;;;;;;5016463;28;20061;-74
2022/05/26 08:16:35;;;;;;;3.58;0.20;;;18.30;99.90;;;;;;5014644;28;20018;-74
2022/05/26 08:19:07;;;;;;;9.07;0.20;;;18.20;99.90;;;;;;5051012;23;20419;-77
2022/05/26 08:21:33;;;;;;;3.47;0.10;;;18.00;99.90;;;;;;5055038;28;20028;-77
2022/05/26 08:24:00;;;;;;;3.90;0.32;;;18.00;99.90;;;;;;5055737;28;20025;-77
2022/05/26 08:26:28;;;;;;;9.73;0.52;;;17.70;99.90;;;;;;5053296;28;20029;-74
2022/05/26 08:29:03;;;;;;;8.15;0.68;;;17.70;99.90;;;;;;5054643;28;20021;-74
2022/05/26 08:31:28;;;;;;;4.68;0.17;;;17.80;99.90;;;;;;5054868;28;20468;-74
2022/05/26 08:33:54;;;;;;;6.50;0.10;;;18.00;99.90;;;;;;5057483;28;20024;-73
2022/05/26 08:36:24;;;;;;;6.70;0.90;;;18.00;99.90;;;;;;5059446;28;20037;-77
2022/05/26 08:38:51;;;;;;;5.43;0.40;;;18.10;99.90;;;;;;5058163;28;20032;-75
2022/05/26 08:41:21;;;;;;;4.28;0.38;;;18.20;99.90;;;;;;5058418;28;20072;-75
2022/05/26 08:43:53;;;;;;;2.28;0.08;;;18.50;99.90;;;;;;5058667;28;20121;-76
2022/05/26 08:46:19;;;;;;;2.85;0.10;;;18.80;99.90;;;;;;5057853;28;20024;-76
2022/05/26 08:49:09;;;;;;;3.35;0.00;;;19.20;99.90;;;;;;5057826;28;20028;-76
2022/05/26 08:51:51;;;;;;;3.97;0.03;;;19.30;99.90;;;;;;5059246;28;20096;-75
2022/05/26 08:54:56;;;;;;;7.60;0.50;;;19.40;99.90;;;;;;5058078;28;20021;-76
2022/05/26 08:57:32;;;;;;;1.17;0.00;;;19.10;99.90;;;;;;5048618;28;20041;-74
2022/05/26 08:59:57;;;;;;;6.75;0.00;;;18.90;99.90;;;;;;5059660;28;20021;-74
2022/05/26 09:02:34;;;;;;;3.45;0.00;;;18.70;99.90;;;;;;5057564;28;20115;-74
2022/05/26 09:05:05;;;;;;;2.30;0.47;;;18.90;99.90;;;;;;5059056;28;20029;-73
2022/05/26 09:13:24;;;;;;;4.07;0.70;;;18.90;99.90;;;;;;5058658;28;20040;-73
2022/05/26 09:15:50;;;;;;;2.35;0.05;;;18.80;99.90;;;;;;5056375;28;20025;-73
2022/05/26 09:18:21;;;;;;;3.17;0.32;;;18.60;99.90;;;;;;5056850;28;20467;-73
2022/05/26 09:20:49;;;;;;;2.75;0.10;;;18.80;99.90;;;;;;5056266;28;20037;-73
2022/05/26 09:23:28;;;;;;;3.05;0.43;;;18.90;99.90;;;;;;5057011;28;20027;-73
2022/05/26 09:26:04;;;;;;;3.97;0.05;;;19.00;99.90;;;;;;5057763;28;20057;-73
2022/05/26 09:28:32;;;;;;;2.75;0.20;;;18.80;99.90;;;;;;5057543;28;20049;-75
2022/05/26 09:31:43;;;;;;;1.83;0.00;;;18.80;99.90;;;;;;5056169;28;20028;-74
2022/05/26 09:34:14;;;;;;;4.05;0.10;;;18.80;99.90;;;;;;5057913;28;20025;-76
2022/05/26 09:36:45;;;;;;;2.05;0.08;;;18.90;99.90;;;;;;5057146;28;20028;-76
2022/05/26 09:39:13;;;;;;;3.25;0.10;;;19.00;99.90;;;;;;5057273;28;20029;-76
2022/05/26 09:41:45;;;;;;;1.65;0.15;;;19.30;99.90;;;;;;5055891;28;20024;-77
2022/05/26 09:44:32;;;;;;;6.95;0.85;;;19.30;99.90;;;;;;5057718;28;20021;-76
2022/05/26 09:47:02;;;;;;;3.30;0.08;;;19.30;99.90;;;;;;5056970;28;20106;-74
2022/05/26 09:49:36;;;;;;;1.77;0.00;;;19.20;99.90;;;;;;5056145;28;20077;-73
2022/05/26 09:52:25;;;;;;;1.35;0.05;;;19.10;99.90;;;;;;5055943;28;20120;-73
2022/05/26 09:55:05;;;;;;;;;;;18.90;99.90;;;;;;5057589;28;20063;-74
2022/05/26 09:57:31;;;;;;;1.27;0.00;;;18.70;99.90;;;;;;5057506;28;20042;-74
2022/05/26 09:59:57;;;;;;;1.38;0.28;;;18.70;99.90;;;;;;5057855;28;20028;-76
2022/05/26 10:02:36;;;;;;;3.78;0.10;;;18.70;99.90;;;;;;5058496;28;20566;-76
2022/05/26 10:05:01;;;;;;;3.78;0.00;;;18.90;99.90;;;;;;5058051;28;20064;-74
2022/05/26 10:07:56;;;;;;;2.13;0.00;;;19.10;99.90;;;;;;5058410;28;20017;-74
2022/05/26 10:10:33;;;;;;;1.30;0.10;;;19.40;99.90;;;;;;5048415;28;20087;-76
2022/05/26 10:13:17;;;;;;;4.32;0.32;;;19.60;99.90;;;;;;5055473;28;20013;-76
2022/05/26 10:16:32;;;;;;;4.00;0.35;;;19.50;99.90;;;;;;5056632;28;20028;-75
2022/05/26 10:18:58;;;;;;;4.05;0.15;;;19.60;99.90;;;;;;5033397;28;20076;-75
2022/05/26 10:21:51;;;;;;;2.60;0.28;;;19.50;99.90;;;;;;5057268;28;20040;-75
2022/05/26 10:24:41;;;;;;;5.15;0.38;;;19.30;99.90;;;;;;5055306;28;20025;-75
2022/05/26 10:27:19;;;;;;;1.75;0.52;;;19.50;99.90;;;;;;5056935;28;20024;-77
2022/05/26 10:30:00;;;;;;;3.95;0.15;;;20.00;99.90;;;;;;5055362;28;20025;-75
2022/05/26 10:32:41;;;;;;;3.42;0.10;;;20.40;99.90;;;;;;5056903;28;20017;-75
2022/05/26 10:35:22;;;;;;;1.77;0.00;;;20.30;99.90;;;;;;5055281;28;20031;-75
2022/05/26 10:37:56;;;;;;;2.00;0.22;;;20.30;99.50;;;;;;5055015;28;20075;-75
2022/05/26 10:40:31;;;;;;;1.15;0.00;;;20.20;97.80;;;;;;5055387;28;20020;-75
2022/05/26 10:43:21;;;;;;;0.98;0.00;;;20.40;99.40;;;;;;5050291;28;20037;-75
2022/05/26 10:45:51;;;;;;;5.65;0.45;;;20.40;96.50;;;;;;5035923;28;20128;-75
2022/05/26 10:48:32;;;;;;;1.48;0.00;;;20.50;99.70;;;;;;5034697;28;20028;-75
2022/05/26 10:51:15;;;;;;;3.20;0.10;;;20.70;97.30;;;;;;5035671;28;20469;-75
2022/05/26 10:54:06;;;;;;;2.10;0.00;;;20.90;94.10;;;;;;5036250;28;20053;-75
2022/05/26 10:56:54;;;;;;;2.65;0.68;;;21.10;97.10;;;;;;5032448;28;20377;-74
2022/05/26 10:59:47;;;;;;;5.75;0.43;;;21.00;96.90;;;;;;5035799;28;20498;-73
2022/05/26 11:02:22;;;;;;;1.05;0.00;;;21.00;95.10;;;;;;5035646;28;20517;-73
2022/05/26 11:05:12;;;;;;;2.28;0.10;;;20.90;91.60;;;;;;5035326;28;20025;-75
2022/05/26 11:07:38;;;;;;;5.70;0.20;;;20.80;94.80;;;;;;5035776;28;20487;-75
2022/05/26 11:10:21;;;;;;;2.20;0.00;;;20.80;94.20;;;;;;5035892;28;20021;-75
2022/05/26 11:12:56;;;;;;;4.00;0.13;;;20.80;94.40;;;;;;5035328;28;20539;-75
2022/05/26 11:19:00;;;;;;;1.55;0.00;;;20.70;96.20;;;;;;5035708;28;20079;-74
2022/05/26 11:21:26;;;;;;;3.03;0.00;;;20.90;94.10;;;;;;5014064;28;20433;-74
2022/05/26 11:23:51;;;;;;;2.08;0.00;;;20.80;91.00;;;;;;5013866;28;20068;-76
2022/05/26 11:26:44;;;;;;;4.38;0.10;;;20.60;91.30;;;;;;5013501;28;20574;-79
2022/05/26 11:29:16;;;;;;;1.55;0.20;;;20.70;88.10;;;;;;5032521;28;20037;-76
2022/05/26 11:38:15;;;;;;;3.28;0.38;;;21.00;93.10;;;;;;5036012;28;20091;-75
2022/05/26 11:41:06;;;;;;;1.65;0.00;;;21.30;94.80;;;;;;5036205;28;20025;-73
2022/05/26 11:44:00;;;;;;;1.55;0.00;;;21.50;91.70;;;;;;5034563;28;20033;-75
2022/05/26 11:47:16;;;;;;;3.45;0.20;;;21.60;91.40;;;;;;5034980;28;20103;-73
2022/05/26 11:49:45;;;;;;;2.50;0.05;;;21.30;92.40;;;;;;5016799;28;20041;-73
2022/05/26 11:52:29;;;;;;;2.20;0.10;;;21.30;90.80;;;;;;5034972;28;20033;-73
2022/05/26 11:55:02;;;;;;;8.52;0.45;;;21.50;90.40;;;;;;5034969;28;20025;-73
2022/05/26 11:57:36;;;;;;;3.92;0.10;;;21.30;89.20;;;;;;5034800;28;20026;-74
2022/05/26 12:00:21;;;;;;;1.80;0.20;;;20.80;91.10;;;;;;5034668;28;20109;-73
2022/05/26 12:02:52;;;;;;;2.83;0.00;;;20.30;92.70;;;;;;5033099;28;20112;-72
2022/05/26 12:05:30;;;;;;;1.80;0.08;;;20.20;92.00;;;;;;5034605;28;20124;-72
2022/05/26 12:07:58;;;;;;;5.35;0.00;;;20.20;93.40;;;;;;5032844;28;20017;-72
2022/05/26 12:10:36;;;;;;;3.10;0.08;;;20.00;93.10;;;;;;5035039;28;20037;-72
2022/05/26 12:13:23;;;;;;;1.65;0.28;;;20.00;93.70;;;;;;5034801;28;20476;-72
2022/05/26 12:16:04;;;;;;;6.80;0.00;;;20.10;92.90;;;;;;5034088;28;20439;-72
2022/05/26 12:18:40;;;;;;;3.30;0.40;;;20.00;94.00;;;;;;5034641;28;20565;-73
2022/05/26 12:21:19;;;;;;;1.27;0.20;;;20.10;93.60;;;;;;5034021;28;20022;-72
2022/05/26 12:23:44;;;;;;;2.40;0.28;;;20.30;93.40;;;;;;5034351;28;20056;-73
2022/05/26 12:26:28;;;;;;;2.00;0.13;;;20.20;93.40;;;;;;5034237;28;20061;-72
2022/05/26 12:28:55;;;;;;;3.63;0.28;;;20.00;94.20;;;;;;5034175;28;20032;-72
2022/05/26 12:31:21;;;;;;;1.55;0.00;;;19.80;94.10;;;;;;5034685;28;20087;-72
2022/05/26 12:34:02;;;;;;;1.33;0.00;;;19.70;94.90;;;;;;5033607;28;20017;-72
2022/05/26 12:36:46;;;;;;;2.08;0.00;;;19.80;96.40;;;;;;5034898;28;20029;-73
2022/05/26 12:39:47;;;;;;;1.13;0.00;;;20.00;96.10;;;;;;5034811;28;20060;-73
2022/05/26 12:42:27;;;;;;;1.27;0.03;;;20.00;94.10;;;;;;5035001;28;20029;-75
2022/05/26 12:45:19;;;;;;;2.47;0.00;;;20.00;94.80;;;;;;5036073;28;20026;-77
2022/05/26 12:48:00;;;;;;;4.13;0.43;;;19.90;94.80;;;;;;5033423;28;20021;-77
2022/05/26 12:50:27;;;;;;;2.35;0.00;;;20.00;95.40;;;;;;5035429;28;20049;-76
2022/05/26 12:52:57;;;;;;;5.17;0.43;;;20.50;95.60;;;;;;5034601;28;20447;-75
2022/05/26 12:55:34;;;;;;;3.05;0.00;;;20.90;92.50;;;;;;5034807;28;20268;-74
2022/05/26 12:58:14;;;;;;;5.23;0.17;;;20.90;92.40;;;;;;5034272;28;20029;-75
2022/05/26 13:00:45;;;;;;;1.27;0.00;;;21.10;96.00;;;;;;5033170;28;20620;-77
2022/05/26 13:03:16;;;;;;;3.80;0.00;;;21.00;92.20;;;;;;5033184;28;20087;-75
2022/05/26 13:05:46;;;;;;;0.88;0.00;;;20.50;92.90;;;;;;5033106;28;20103;-74
2022/05/26 13:08:20;;;;;;;1.63;0.10;;;20.20;93.70;;;;;;5035294;28;20028;-77
2022/05/26 13:10:51;;;;;;;6.63;0.05;;;20.50;95.20;;;;;;5035268;28;20427;-74
2022/05/26 13:13:54;;;;;;;2.17;0.00;;;20.50;93.50;;;;;;5035424;28;20026;-74
2022/05/26 13:16:24;;;;;;;1.48;0.00;;;20.20;94.60;;;;;;5032866;28;20377;-75
2022/05/26 13:18:51;;;;;;;1.45;0.00;;;20.30;94.00;;;;;;5036042;28;20049;-74
2022/05/26 13:21:29;;;;;;;0.65;0.10;;;20.20;95.10;;;;;;5037645;28;20017;-74
2022/05/26 13:23:55;;;;;;;0.43;0.00;;;20.00;92.60;;;;;;5038282;28;20488;-74
2022/05/26 13:26:21;;;;;;;1.02;0.00;;;19.70;94.80;;;;;;5037733;28;20032;-74
2022/05/26 13:28:50;;;;;;;0.93;0.00;;;19.80;94.60;;;;;;5036386;28;20104;-74
2022/05/26 13:34:04;;;;;;;0.75;0.00;;;20.50;93.10;;;;;;5038431;28;20036;-74
2022/05/26 13:37:02;;;;;;;2.88;0.00;;;20.50;92.50;;;;;;5051276;22;20138;-75
2022/05/26 13:39:28;;;;;;;3.25;0.30;;;20.70;92.00;;;;;;5037926;28;20041;-75
2022/05/26 13:41:54;;;;;;;0.20;0.00;;;21.00;90.70;;;;;;5037741;28;20472;-75
2022/05/26 13:44:35;;;;;;;4.28;0.00;;;21.10;91.50;;;;;;5027712;28;20038;-75
2022/05/26 13:47:04;;;;;;;5.47;0.30;;;21.20;86.90;;;;;;5018402;28;20109;-76
2022/05/26 13:49:43;;;;;;;2.47;0.00;;;21.10;86.20;;;;;;5017740;28;20014;-76
2022/05/26 13:52:37;;;;;;;4.10;0.00;;;21.00;86.10;;;;;;5018064;28;20466;-75
2022/05/26 13:55:14;;;;;;;3.15;0.47;;;20.70;90.00;;;;;;5015011;28;20033;-76